sensor_id;sensor_type;location;lat;lon;timestamp;P1;durP1;ratioP1;P2;durP2;ratioP2
51981;SDS011;37998;53.416;6.730;2023-03-12T00:00:28;8.07;;;4.55;;
51981;SDS011;37998;53.416;6.730;2023-03-12T00:02:54;7.50;;;3.90;;
51981;SDS011;37998;53.416;6.730;2023-03-12T00:05:20;4.97;;;4.15;;
51981;SDS011;37998;53.416;6.730;2023-03-12T00:07:47;9.73;;;4.30;;
51981;SDS011;37998;53.416;6.730;2023-03-12T00:10:13;6.00;;;4.13;;
51981;SDS011;37998;53.416;6.730;2023-03-12T00:12:39;7.57;;;4.28;;
51981;SDS011;37998;53.416;6.730;2023-03-12T00:15:05;6.20;;;3.85;;
51981;SDS011;37998;53.416;6.730;2023-03-12T00:17:31;7.72;;;3.95;;
51981;SDS011;37998;53.416;6.730;2023-03-12T00:19:57;7.65;;;3.97;;
51981;SDS011;37998;53.416;6.730;2023-03-12T00:22:23;12.85;;;4.50;;
51981;SDS011;37998;53.416;6.730;2023-03-12T00:24:53;8.15;;;4.38;;
51981;SDS011;37998;53.416;6.730;2023-03-12T00:27:20;9.25;;;4.35;;
51981;SDS011;37998;53.416;6.730;2023-03-12T00:29:46;5.07;;;3.67;;
51981;SDS011;37998;53.416;6.730;2023-03-12T00:32:12;5.72;;;3.78;;
51981;SDS011;37998;53.416;6.730;2023-03-12T00:34:38;7.13;;;4.30;;
51981;SDS011;37998;53.416;6.730;2023-03-12T00:37:04;6.85;;;3.92;;
51981;SDS011;37998;53.416;6.730;2023-03-12T00:39:30;6.30;;;3.47;;
51981;SDS011;37998;53.416;6.730;2023-03-12T00:41:56;5.55;;;3.90;;
51981;SDS011;37998;53.416;6.730;2023-03-12T00:44:22;8.02;;;4.35;;
51981;SDS011;37998;53.416;6.730;2023-03-12T00:46:47;6.65;;;4.22;;
51981;SDS011;37998;53.416;6.730;2023-03-12T00:49:13;5.45;;;3.88;;
51981;SDS011;37998;53.416;6.730;2023-03-12T00:51:39;8.00;;;3.83;;
51981;SDS011;37998;53.416;6.730;2023-03-12T00:54:04;9.13;;;3.75;;
51981;SDS011;37998;53.416;6.730;2023-03-12T00:56:30;6.80;;;3.67;;
51981;SDS011;37998;53.416;6.730;2023-03-12T00:58:56;7.65;;;4.15;;
51981;SDS011;37998;53.416;6.730;2023-03-12T01:01:22;8.63;;;4.40;;
51981;SDS011;37998;53.416;6.730;2023-03-12T01:03:48;9.55;;;4.88;;
51981;SDS011;37998;53.416;6.730;2023-03-12T01:06:16;9.88;;;4.50;;
51981;SDS011;37998;53.416;6.730;2023-03-12T01:08:41;7.85;;;4.75;;
51981;SDS011;37998;53.416;6.730;2023-03-12T01:11:11;6.93;;;4.07;;
51981;SDS011;37998;53.416;6.730;2023-03-12T01:13:37;5.60;;;4.65;;
51981;SDS011;37998;53.416;6.730;2023-03-12T01:16:03;9.38;;;5.20;;
51981;SDS011;37998;53.416;6.730;2023-03-12T01:18:29;11.60;;;5.30;;
51981;SDS011;37998;53.416;6.730;2023-03-12T01:20:54;7.68;;;4.70;;
51981;SDS011;37998;53.416;6.730;2023-03-12T01:23:20;8.60;;;4.88;;
51981;SDS011;37998;53.416;6.730;2023-03-12T01:25:46;7.38;;;4.65;;
51981;SDS011;37998;53.416;6.730;2023-03-12T01:28:11;10.27;;;5.20;;
51981;SDS011;37998;53.416;6.730;2023-03-12T01:30:37;7.68;;;4.78;;
51981;SDS011;37998;53.416;6.730;2023-03-12T01:33:03;8.75;;;4.93;;
51981;SDS011;37998;53.416;6.730;2023-03-12T01:35:29;8.57;;;4.25;;
51981;SDS011;37998;53.416;6.730;2023-03-12T01:37:54;11.18;;;4.45;;
51981;SDS011;37998;53.416;6.730;2023-03-12T01:40:21;8.35;;;4.65;;
51981;SDS011;37998;53.416;6.730;2023-03-12T01:42:56;7.30;;;4.45;;
51981;SDS011;37998;53.416;6.730;2023-03-12T01:48:29;10.25;;;4.90;;
51981;SDS011;37998;53.416;6.730;2023-03-12T01:50:59;7.28;;;4.45;;
51981;SDS011;37998;53.416;6.730;2023-03-12T01:53:26;10.10;;;4.60;;
51981;SDS011;37998;53.416;6.730;2023-03-12T01:55:53;7.88;;;4.57;;
51981;SDS011;37998;53.416;6.730;2023-03-12T01:58:18;6.80;;;5.07;;
51981;SDS011;37998;53.416;6.730;2023-03-12T02:00:46;6.90;;;4.72;;
51981;SDS011;37998;53.416;6.730;2023-03-12T02:03:11;9.00;;;4.40;;
51981;SDS011;37998;53.416;6.730;2023-03-12T02:05:43;6.25;;;5.47;;
51981;SDS011;37998;53.416;6.730;2023-03-12T02:08:16;5.88;;;4.40;;
51981;SDS011;37998;53.416;6.730;2023-03-12T02:10:42;8.32;;;4.75;;
51981;SDS011;37998;53.416;6.730;2023-03-12T02:13:08;6.20;;;4.35;;
51981;SDS011;37998;53.416;6.730;2023-03-12T02:15:35;9.05;;;4.40;;
51981;SDS011;37998;53.416;6.730;2023-03-12T02:18:02;7.95;;;4.75;;
51981;SDS011;37998;53.416;6.730;2023-03-12T02:20:38;7.03;;;4.10;;
51981;SDS011;37998;53.416;6.730;2023-03-12T02:23:13;4.80;;;4.35;;
51981;SDS011;37998;53.416;6.730;2023-03-12T02:26:03;8.68;;;4.40;;
51981;SDS011;37998;53.416;6.730;2023-03-12T02:28:31;5.30;;;3.80;;
51981;SDS011;37998;53.416;6.730;2023-03-12T02:31:06;8.35;;;4.35;;
51981;SDS011;37998;53.416;6.730;2023-03-12T02:33:32;6.45;;;4.28;;
51981;SDS011;37998;53.416;6.730;2023-03-12T02:35:58;7.55;;;3.85;;
51981;SDS011;37998;53.416;6.730;2023-03-12T02:40:49;9.65;;;4.18;;
51981;SDS011;37998;53.416;6.730;2023-03-12T02:43:19;10.32;;;4.25;;
51981;SDS011;37998;53.416;6.730;2023-03-12T02:45:46;9.55;;;4.85;;
51981;SDS011;37998;53.416;6.730;2023-03-12T02:48:12;5.45;;;4.45;;
51981;SDS011;37998;53.416;6.730;2023-03-12T02:50:38;6.75;;;4.13;;
51981;SDS011;37998;53.416;6.730;2023-03-12T02:53:03;5.38;;;3.95;;
51981;SDS011;37998;53.416;6.730;2023-03-12T02:55:29;6.43;;;4.85;;
51981;SDS011;37998;53.416;6.730;2023-03-12T02:57:55;13.45;;;4.85;;
51981;SDS011;37998;53.416;6.730;2023-03-12T03:00:20;9.32;;;4.57;;
51981;SDS011;37998;53.416;6.730;2023-03-12T03:02:46;7.18;;;4.25;;
51981;SDS011;37998;53.416;6.730;2023-03-12T03:05:11;7.22;;;5.00;;
51981;SDS011;37998;53.416;6.730;2023-03-12T03:07:40;6.32;;;4.85;;
51981;SDS011;37998;53.416;6.730;2023-03-12T03:10:06;6.07;;;4.75;;
51981;SDS011;37998;53.416;6.730;2023-03-12T03:12:33;7.28;;;4.55;;
51981;SDS011;37998;53.416;6.730;2023-03-12T03:14:59;11.32;;;4.80;;
51981;SDS011;37998;53.416;6.730;2023-03-12T03:17:26;5.32;;;4.53;;
51981;SDS011;37998;53.416;6.730;2023-03-12T03:19:52;5.30;;;4.55;;
51981;SDS011;37998;53.416;6.730;2023-03-12T03:22:18;10.05;;;4.97;;
51981;SDS011;37998;53.416;6.730;2023-03-12T03:24:45;10.38;;;5.15;;
51981;SDS011;37998;53.416;6.730;2023-03-12T03:27:11;7.72;;;4.50;;
51981;SDS011;37998;53.416;6.730;2023-03-12T03:29:37;5.38;;;4.10;;
51981;SDS011;37998;53.416;6.730;2023-03-12T03:32:03;6.65;;;4.57;;
51981;SDS011;37998;53.416;6.730;2023-03-12T03:34:29;7.75;;;5.10;;
51981;SDS011;37998;53.416;6.730;2023-03-12T03:36:54;5.35;;;4.05;;
51981;SDS011;37998;53.416;6.730;2023-03-12T03:39:20;10.38;;;4.63;;
51981;SDS011;37998;53.416;6.730;2023-03-12T03:41:46;7.55;;;4.60;;
51981;SDS011;37998;53.416;6.730;2023-03-12T03:44:12;7.43;;;4.50;;
51981;SDS011;37998;53.416;6.730;2023-03-12T03:46:38;8.98;;;4.78;;
51981;SDS011;37998;53.416;6.730;2023-03-12T03:49:04;10.57;;;5.80;;
51981;SDS011;37998;53.416;6.730;2023-03-12T03:51:29;6.55;;;4.10;;
51981;SDS011;37998;53.416;6.730;2023-03-12T03:53:55;5.68;;;4.38;;
51981;SDS011;37998;53.416;6.730;2023-03-12T03:56:24;7.95;;;4.97;;
51981;SDS011;37998;53.416;6.730;2023-03-12T03:58:50;11.45;;;4.68;;
51981;SDS011;37998;53.416;6.730;2023-03-12T04:01:15;8.35;;;4.18;;
51981;SDS011;37998;53.416;6.730;2023-03-12T04:03:41;8.13;;;4.55;;
51981;SDS011;37998;53.416;6.730;2023-03-12T04:06:07;8.30;;;4.38;;
51981;SDS011;37998;53.416;6.730;2023-03-12T04:08:33;9.65;;;4.75;;
51981;SDS011;37998;53.416;6.730;2023-03-12T04:11:09;6.05;;;4.00;;
51981;SDS011;37998;53.416;6.730;2023-03-12T04:13:42;10.32;;;4.60;;
51981;SDS011;37998;53.416;6.730;2023-03-12T04:16:09;5.63;;;3.80;;
51981;SDS011;37998;53.416;6.730;2023-03-12T04:18:35;6.00;;;4.00;;
51981;SDS011;37998;53.416;6.730;2023-03-12T04:21:03;6.57;;;4.20;;
51981;SDS011;37998;53.416;6.730;2023-03-12T04:23:29;7.18;;;3.70;;
51981;SDS011;37998;53.416;6.730;2023-03-12T04:25:56;10.73;;;4.55;;
51981;SDS011;37998;53.416;6.730;2023-03-12T04:28:22;7.18;;;3.47;;
51981;SDS011;37998;53.416;6.730;2023-03-12T04:30:57;7.45;;;4.32;;
51981;SDS011;37998;53.416;6.730;2023-03-12T04:33:28;6.63;;;3.78;;
51981;SDS011;37998;53.416;6.730;2023-03-12T04:35:55;4.93;;;3.42;;
51981;SDS011;37998;53.416;6.730;2023-03-12T04:38:21;6.78;;;4.30;;
51981;SDS011;37998;53.416;6.730;2023-03-12T04:43:31;14.43;;;3.67;;
51981;SDS011;37998;53.416;6.730;2023-03-12T04:45:57;7.18;;;3.67;;
51981;SDS011;37998;53.416;6.730;2023-03-12T04:48:23;5.43;;;3.20;;
51981;SDS011;37998;53.416;6.730;2023-03-12T04:50:49;6.20;;;3.53;;
51981;SDS011;37998;53.416;6.730;2023-03-12T04:53:15;6.88;;;3.72;;
51981;SDS011;37998;53.416;6.730;2023-03-12T04:55:41;5.25;;;3.65;;
51981;SDS011;37998;53.416;6.730;2023-03-12T04:58:07;6.00;;;3.58;;
51981;SDS011;37998;53.416;6.730;2023-03-12T05:00:33;5.75;;;3.40;;
51981;SDS011;37998;53.416;6.730;2023-03-12T05:02:59;6.38;;;3.85;;
51981;SDS011;37998;53.416;6.730;2023-03-12T05:05:24;8.13;;;4.20;;
51981;SDS011;37998;53.416;6.730;2023-03-12T05:07:50;6.57;;;4.05;;
51981;SDS011;37998;53.416;6.730;2023-03-12T05:10:16;6.85;;;4.07;;
51981;SDS011;37998;53.416;6.730;2023-03-12T05:12:41;8.18;;;4.13;;
51981;SDS011;37998;53.416;6.730;2023-03-12T05:15:07;6.63;;;3.85;;
51981;SDS011;37998;53.416;6.730;2023-03-12T05:17:33;6.65;;;4.40;;
51981;SDS011;37998;53.416;6.730;2023-03-12T05:19:59;4.28;;;3.67;;
51981;SDS011;37998;53.416;6.730;2023-03-12T05:22:24;9.77;;;3.85;;
51981;SDS011;37998;53.416;6.730;2023-03-12T05:24:50;9.65;;;4.28;;
51981;SDS011;37998;53.416;6.730;2023-03-12T05:27:16;6.30;;;4.60;;
51981;SDS011;37998;53.416;6.730;2023-03-12T05:29:41;7.72;;;4.90;;
51981;SDS011;37998;53.416;6.730;2023-03-12T05:32:07;7.60;;;4.20;;
51981;SDS011;37998;53.416;6.730;2023-03-12T05:34:33;5.85;;;4.15;;
51981;SDS011;37998;53.416;6.730;2023-03-12T05:36:59;7.20;;;4.78;;
51981;SDS011;37998;53.416;6.730;2023-03-12T05:39:25;11.90;;;4.57;;
51981;SDS011;37998;53.416;6.730;2023-03-12T05:41:51;8.55;;;4.60;;
51981;SDS011;37998;53.416;6.730;2023-03-12T05:44:22;7.25;;;4.53;;
51981;SDS011;37998;53.416;6.730;2023-03-12T05:46:48;6.72;;;4.55;;
51981;SDS011;37998;53.416;6.730;2023-03-12T05:49:14;6.50;;;4.13;;
51981;SDS011;37998;53.416;6.730;2023-03-12T05:51:40;7.70;;;4.45;;
51981;SDS011;37998;53.416;6.730;2023-03-12T05:54:07;6.72;;;4.43;;
51981;SDS011;37998;53.416;6.730;2023-03-12T05:56:35;8.55;;;4.70;;
51981;SDS011;37998;53.416;6.730;2023-03-12T05:59:01;8.40;;;4.43;;
51981;SDS011;37998;53.416;6.730;2023-03-12T06:01:27;6.72;;;4.53;;
51981;SDS011;37998;53.416;6.730;2023-03-12T06:03:53;8.13;;;4.60;;
51981;SDS011;37998;53.416;6.730;2023-03-12T06:06:19;5.90;;;4.30;;
51981;SDS011;37998;53.416;6.730;2023-03-12T06:08:45;9.45;;;4.82;;
51981;SDS011;37998;53.416;6.730;2023-03-12T06:11:14;9.10;;;4.85;;
51981;SDS011;37998;53.416;6.730;2023-03-12T06:13:43;7.28;;;4.50;;
51981;SDS011;37998;53.416;6.730;2023-03-12T06:16:18;9.95;;;4.63;;
51981;SDS011;37998;53.416;6.730;2023-03-12T06:18:46;6.32;;;4.82;;
51981;SDS011;37998;53.416;6.730;2023-03-12T06:21:13;8.30;;;4.90;;
51981;SDS011;37998;53.416;6.730;2023-03-12T06:23:43;13.52;;;5.20;;
51981;SDS011;37998;53.416;6.730;2023-03-12T06:26:10;5.72;;;4.63;;
51981;SDS011;37998;53.416;6.730;2023-03-12T06:28:36;6.68;;;4.47;;
51981;SDS011;37998;53.416;6.730;2023-03-12T06:31:03;10.52;;;5.30;;
51981;SDS011;37998;53.416;6.730;2023-03-12T06:33:29;5.80;;;4.82;;
51981;SDS011;37998;53.416;6.730;2023-03-12T06:35:56;7.88;;;4.95;;
51981;SDS011;37998;53.416;6.730;2023-03-12T06:38:23;10.00;;;4.72;;
51981;SDS011;37998;53.416;6.730;2023-03-12T06:40:59;10.30;;;5.20;;
51981;SDS011;37998;53.416;6.730;2023-03-12T06:43:27;10.93;;;5.10;;
51981;SDS011;37998;53.416;6.730;2023-03-12T06:45:54;10.00;;;4.63;;
51981;SDS011;37998;53.416;6.730;2023-03-12T06:48:22;8.35;;;5.10;;
51981;SDS011;37998;53.416;6.730;2023-03-12T06:50:48;9.63;;;5.35;;
51981;SDS011;37998;53.416;6.730;2023-03-12T06:53:14;9.80;;;4.90;;
51981;SDS011;37998;53.416;6.730;2023-03-12T06:55:41;14.10;;;5.38;;
51981;SDS011;37998;53.416;6.730;2023-03-12T06:58:10;11.75;;;5.97;;
51981;SDS011;37998;53.416;6.730;2023-03-12T07:00:36;9.48;;;5.45;;
51981;SDS011;37998;53.416;6.730;2023-03-12T07:03:02;11.20;;;5.70;;
51981;SDS011;37998;53.416;6.730;2023-03-12T07:05:28;6.50;;;5.20;;
51981;SDS011;37998;53.416;6.730;2023-03-12T07:07:54;9.90;;;5.43;;
51981;SDS011;37998;53.416;6.730;2023-03-12T07:10:19;7.28;;;5.38;;
51981;SDS011;37998;53.416;6.730;2023-03-12T07:12:45;8.70;;;5.53;;
51981;SDS011;37998;53.416;6.730;2023-03-12T07:15:11;11.30;;;6.20;;
51981;SDS011;37998;53.416;6.730;2023-03-12T07:17:37;13.63;;;7.13;;
51981;SDS011;37998;53.416;6.730;2023-03-12T07:20:03;9.27;;;6.07;;
51981;SDS011;37998;53.416;6.730;2023-03-12T07:22:32;8.80;;;5.88;;
51981;SDS011;37998;53.416;6.730;2023-03-12T07:24:58;12.18;;;6.22;;
51981;SDS011;37998;53.416;6.730;2023-03-12T07:27:24;10.63;;;6.43;;
51981;SDS011;37998;53.416;6.730;2023-03-12T07:29:49;8.13;;;5.57;;
51981;SDS011;37998;53.416;6.730;2023-03-12T07:32:16;12.52;;;5.93;;
51981;SDS011;37998;53.416;6.730;2023-03-12T07:34:42;10.85;;;6.03;;
51981;SDS011;37998;53.416;6.730;2023-03-12T07:37:08;9.60;;;6.72;;
51981;SDS011;37998;53.416;6.730;2023-03-12T07:39:33;10.90;;;6.88;;
51981;SDS011;37998;53.416;6.730;2023-03-12T07:41:59;8.45;;;6.22;;
51981;SDS011;37998;53.416;6.730;2023-03-12T07:44:28;12.50;;;6.50;;
51981;SDS011;37998;53.416;6.730;2023-03-12T07:46:53;10.27;;;6.72;;
51981;SDS011;37998;53.416;6.730;2023-03-12T07:49:19;9.60;;;6.97;;
51981;SDS011;37998;53.416;6.730;2023-03-12T07:51:45;11.90;;;7.10;;
51981;SDS011;37998;53.416;6.730;2023-03-12T07:54:11;11.82;;;7.03;;
51981;SDS011;37998;53.416;6.730;2023-03-12T07:56:37;15.35;;;7.53;;
51981;SDS011;37998;53.416;6.730;2023-03-12T07:59:05;14.30;;;6.63;;
51981;SDS011;37998;53.416;6.730;2023-03-12T08:01:31;13.15;;;7.07;;
51981;SDS011;37998;53.416;6.730;2023-03-12T08:03:58;12.13;;;8.48;;
51981;SDS011;37998;53.416;6.730;2023-03-12T08:06:23;12.13;;;7.50;;
51981;SDS011;37998;53.416;6.730;2023-03-12T08:08:50;14.57;;;8.57;;
51981;SDS011;37998;53.416;6.730;2023-03-12T08:11:16;10.70;;;7.40;;
51981;SDS011;37998;53.416;6.730;2023-03-12T08:13:42;13.65;;;8.13;;
51981;SDS011;37998;53.416;6.730;2023-03-12T08:16:07;13.00;;;7.57;;
51981;SDS011;37998;53.416;6.730;2023-03-12T08:18:33;10.82;;;8.45;;
51981;SDS011;37998;53.416;6.730;2023-03-12T08:20:59;12.45;;;8.15;;
51981;SDS011;37998;53.416;6.730;2023-03-12T08:23:24;12.18;;;8.52;;
51981;SDS011;37998;53.416;6.730;2023-03-12T08:25:51;11.00;;;8.30;;
51981;SDS011;37998;53.416;6.730;2023-03-12T08:28:18;12.48;;;8.23;;
51981;SDS011;37998;53.416;6.730;2023-03-12T08:30:46;13.90;;;8.27;;
51981;SDS011;37998;53.416;6.730;2023-03-12T08:33:16;13.93;;;8.45;;
51981;SDS011;37998;53.416;6.730;2023-03-12T08:35:41;15.40;;;8.55;;
51981;SDS011;37998;53.416;6.730;2023-03-12T08:38:07;10.00;;;8.68;;
51981;SDS011;37998;53.416;6.730;2023-03-12T08:40:33;13.55;;;8.63;;
51981;SDS011;37998;53.416;6.730;2023-03-12T08:42:59;15.82;;;9.27;;
51981;SDS011;37998;53.416;6.730;2023-03-12T08:45:25;12.55;;;9.55;;
51981;SDS011;37998;53.416;6.730;2023-03-12T08:47:51;15.40;;;8.63;;
51981;SDS011;37998;53.416;6.730;2023-03-12T08:50:16;13.07;;;9.85;;
51981;SDS011;37998;53.416;6.730;2023-03-12T08:52:42;13.88;;;9.63;;
51981;SDS011;37998;53.416;6.730;2023-03-12T08:55:09;13.18;;;8.77;;
51981;SDS011;37998;53.416;6.730;2023-03-12T08:57:35;12.02;;;9.80;;
51981;SDS011;37998;53.416;6.730;2023-03-12T09:00:02;13.27;;;9.98;;
51981;SDS011;37998;53.416;6.730;2023-03-12T09:02:35;13.32;;;9.45;;
51981;SDS011;37998;53.416;6.730;2023-03-12T09:05:02;16.85;;;10.32;;
51981;SDS011;37998;53.416;6.730;2023-03-12T09:07:31;11.40;;;10.07;;
51981;SDS011;37998;53.416;6.730;2023-03-12T09:09:57;14.63;;;11.48;;
51981;SDS011;37998;53.416;6.730;2023-03-12T09:12:22;15.85;;;11.05;;
51981;SDS011;37998;53.416;6.730;2023-03-12T09:14:49;12.32;;;10.23;;
51981;SDS011;37998;53.416;6.730;2023-03-12T09:17:17;14.82;;;11.68;;
51981;SDS011;37998;53.416;6.730;2023-03-12T09:19:43;14.23;;;11.23;;
51981;SDS011;37998;53.416;6.730;2023-03-12T09:22:09;16.48;;;11.90;;
51981;SDS011;37998;53.416;6.730;2023-03-12T09:24:34;17.17;;;11.73;;
51981;SDS011;37998;53.416;6.730;2023-03-12T09:27:01;13.48;;;11.45;;
51981;SDS011;37998;53.416;6.730;2023-03-12T09:29:28;16.25;;;11.18;;
51981;SDS011;37998;53.416;6.730;2023-03-12T09:31:57;13.73;;;11.55;;
51981;SDS011;37998;53.416;6.730;2023-03-12T09:34:23;13.80;;;12.18;;
51981;SDS011;37998;53.416;6.730;2023-03-12T09:36:48;16.00;;;12.48;;
51981;SDS011;37998;53.416;6.730;2023-03-12T09:39:14;17.65;;;12.02;;
51981;SDS011;37998;53.416;6.730;2023-03-12T09:41:42;15.57;;;12.07;;
51981;SDS011;37998;53.416;6.730;2023-03-12T09:49:52;16.60;;;14.73;;
51981;SDS011;37998;53.416;6.730;2023-03-12T09:55:05;21.15;;;12.77;;
51981;SDS011;37998;53.416;6.730;2023-03-12T09:57:38;16.63;;;13.52;;
51981;SDS011;37998;53.416;6.730;2023-03-12T10:00:05;16.17;;;13.70;;
51981;SDS011;37998;53.416;6.730;2023-03-12T10:14:16;18.20;;;14.30;;
51981;SDS011;37998;53.416;6.730;2023-03-12T10:28:36;22.15;;;14.73;;
51981;SDS011;37998;53.416;6.730;2023-03-12T10:31:13;18.42;;;14.25;;
51981;SDS011;37998;53.416;6.730;2023-03-12T10:36:28;16.25;;;13.57;;
51981;SDS011;37998;53.416;6.730;2023-03-12T10:38:58;19.20;;;13.75;;
51981;SDS011;37998;53.416;6.730;2023-03-12T10:41:26;18.30;;;15.35;;
51981;SDS011;37998;53.416;6.730;2023-03-12T10:43:55;19.05;;;13.98;;
51981;SDS011;37998;53.416;6.730;2023-03-12T10:48:50;17.80;;;13.43;;
51981;SDS011;37998;53.416;6.730;2023-03-12T10:51:45;16.73;;;13.18;;
51981;SDS011;37998;53.416;6.730;2023-03-12T10:54:39;15.88;;;12.88;;
51981;SDS011;37998;53.416;6.730;2023-03-12T10:57:06;14.98;;;13.38;;
51981;SDS011;37998;53.416;6.730;2023-03-12T10:59:33;14.90;;;13.13;;
51981;SDS011;37998;53.416;6.730;2023-03-12T11:02:01;15.45;;;13.07;;
51981;SDS011;37998;53.416;6.730;2023-03-12T11:04:51;14.35;;;12.35;;
51981;SDS011;37998;53.416;6.730;2023-03-12T11:09:47;17.95;;;13.88;;
51981;SDS011;37998;53.416;6.730;2023-03-12T11:12:55;15.50;;;13.70;;
51981;SDS011;37998;53.416;6.730;2023-03-12T11:15:24;15.93;;;14.07;;
51981;SDS011;37998;53.416;6.730;2023-03-12T11:23:43;17.40;;;15.48;;
51981;SDS011;37998;53.416;6.730;2023-03-12T11:26:16;19.80;;;16.35;;
51981;SDS011;37998;53.416;6.730;2023-03-12T11:31:18;18.90;;;16.58;;
51981;SDS011;37998;53.416;6.730;2023-03-12T11:33:47;20.65;;;18.58;;
51981;SDS011;37998;53.416;6.730;2023-03-12T11:44:30;21.65;;;18.20;;
51981;SDS011;37998;53.416;6.730;2023-03-12T11:47:09;21.83;;;18.85;;
51981;SDS011;37998;53.416;6.730;2023-03-12T11:52:19;25.90;;;18.08;;
51981;SDS011;37998;53.416;6.730;2023-03-12T11:55:27;24.80;;;17.65;;
51981;SDS011;37998;53.416;6.730;2023-03-12T12:00:51;23.35;;;18.60;;
51981;SDS011;37998;53.416;6.730;2023-03-12T12:03:37;25.27;;;20.25;;
51981;SDS011;37998;53.416;6.730;2023-03-12T12:08:55;24.30;;;20.55;;
51981;SDS011;37998;53.416;6.730;2023-03-12T12:11:32;24.33;;;19.55;;
51981;SDS011;37998;53.416;6.730;2023-03-12T12:14:30;23.50;;;19.80;;
51981;SDS011;37998;53.416;6.730;2023-03-12T12:17:24;23.17;;;17.42;;
51981;SDS011;37998;53.416;6.730;2023-03-12T12:26:01;23.10;;;17.52;;
51981;SDS011;37998;53.416;6.730;2023-03-12T12:36:38;23.90;;;17.35;;
51981;SDS011;37998;53.416;6.730;2023-03-12T12:39:10;21.10;;;16.85;;
51981;SDS011;37998;53.416;6.730;2023-03-12T12:42:05;19.98;;;17.30;;
51981;SDS011;37998;53.416;6.730;2023-03-12T12:44:40;20.50;;;16.55;;
51981;SDS011;37998;53.416;6.730;2023-03-12T12:47:14;22.20;;;16.58;;
51981;SDS011;37998;53.416;6.730;2023-03-12T12:49:51;20.92;;;16.58;;
51981;SDS011;37998;53.416;6.730;2023-03-12T12:55:05;19.52;;;15.70;;
51981;SDS011;37998;53.416;6.730;2023-03-12T12:57:51;20.45;;;15.88;;
51981;SDS011;37998;53.416;6.730;2023-03-12T13:03:12;24.17;;;17.25;;
51981;SDS011;37998;53.416;6.730;2023-03-12T13:05:45;25.75;;;17.55;;
51981;SDS011;37998;53.416;6.730;2023-03-12T13:08:34;21.75;;;16.98;;
51981;SDS011;37998;53.416;6.730;2023-03-12T13:13:38;27.75;;;18.02;;
51981;SDS011;37998;53.416;6.730;2023-03-12T13:21:45;27.95;;;18.27;;
51981;SDS011;37998;53.416;6.730;2023-03-12T13:24:25;37.83;;;21.65;;
51981;SDS011;37998;53.416;6.730;2023-03-12T13:29:52;34.63;;;19.63;;
51981;SDS011;37998;53.416;6.730;2023-03-12T13:34:59;31.38;;;19.45;;
51981;SDS011;37998;53.416;6.730;2023-03-12T13:46:07;32.80;;;19.77;;
51981;SDS011;37998;53.416;6.730;2023-03-12T13:48:51;34.33;;;18.13;;
51981;SDS011;37998;53.416;6.730;2023-03-12T13:51:22;27.83;;;17.40;;
51981;SDS011;37998;53.416;6.730;2023-03-12T13:53:53;34.67;;;20.20;;
51981;SDS011;37998;53.416;6.730;2023-03-12T13:56:27;46.28;;;22.45;;
51981;SDS011;37998;53.416;6.730;2023-03-12T14:01:42;41.10;;;20.02;;
51981;SDS011;37998;53.416;6.730;2023-03-12T14:04:17;40.13;;;21.40;;
51981;SDS011;37998;53.416;6.730;2023-03-12T14:06:59;40.67;;;21.20;;
51981;SDS011;37998;53.416;6.730;2023-03-12T14:09:34;46.72;;;20.35;;
51981;SDS011;37998;53.416;6.730;2023-03-12T14:17:45;56.95;;;21.58;;
51981;SDS011;37998;53.416;6.730;2023-03-12T14:20:21;54.72;;;18.88;;
51981;SDS011;37998;53.416;6.730;2023-03-12T14:22:49;60.83;;;18.98;;
51981;SDS011;37998;53.416;6.730;2023-03-12T14:28:03;47.63;;;18.27;;
51981;SDS011;37998;53.416;6.730;2023-03-12T14:33:33;47.25;;;18.27;;
51981;SDS011;37998;53.416;6.730;2023-03-12T14:36:14;49.67;;;20.33;;
51981;SDS011;37998;53.416;6.730;2023-03-12T14:38:45;43.00;;;17.52;;
51981;SDS011;37998;53.416;6.730;2023-03-12T14:41:20;44.00;;;14.02;;
51981;SDS011;37998;53.416;6.730;2023-03-12T14:43:50;50.90;;;13.95;;
51981;SDS011;37998;53.416;6.730;2023-03-12T14:46:18;36.97;;;13.52;;
51981;SDS011;37998;53.416;6.730;2023-03-12T14:48:49;38.53;;;10.63;;
51981;SDS011;37998;53.416;6.730;2023-03-12T14:51:20;44.00;;;8.90;;
51981;SDS011;37998;53.416;6.730;2023-03-12T14:53:48;46.88;;;11.35;;
51981;SDS011;37998;53.416;6.730;2023-03-12T14:56:27;35.88;;;10.15;;
51981;SDS011;37998;53.416;6.730;2023-03-12T14:58:57;42.30;;;10.80;;
51981;SDS011;37998;53.416;6.730;2023-03-12T15:01:26;42.58;;;9.13;;
51981;SDS011;37998;53.416;6.730;2023-03-12T15:03:59;38.25;;;8.00;;
51981;SDS011;37998;53.416;6.730;2023-03-12T15:06:31;32.17;;;8.65;;
51981;SDS011;37998;53.416;6.730;2023-03-12T15:09:00;35.85;;;8.05;;
51981;SDS011;37998;53.416;6.730;2023-03-12T15:11:29;36.15;;;7.80;;
51981;SDS011;37998;53.416;6.730;2023-03-12T15:14:03;36.55;;;7.57;;
51981;SDS011;37998;53.416;6.730;2023-03-12T15:16:33;38.63;;;8.93;;
51981;SDS011;37998;53.416;6.730;2023-03-12T15:19:00;38.20;;;8.60;;
51981;SDS011;37998;53.416;6.730;2023-03-12T15:21:27;35.95;;;7.75;;
51981;SDS011;37998;53.416;6.730;2023-03-12T15:23:53;45.22;;;9.43;;
51981;SDS011;37998;53.416;6.730;2023-03-12T15:28:54;42.67;;;7.80;;
51981;SDS011;37998;53.416;6.730;2023-03-12T15:31:20;25.38;;;6.38;;
51981;SDS011;37998;53.416;6.730;2023-03-12T15:33:57;38.35;;;7.03;;
51981;SDS011;37998;53.416;6.730;2023-03-12T15:36:26;39.17;;;8.52;;
51981;SDS011;37998;53.416;6.730;2023-03-12T15:44:11;35.35;;;7.05;;
51981;SDS011;37998;53.416;6.730;2023-03-12T15:46:44;37.45;;;7.43;;
51981;SDS011;37998;53.416;6.730;2023-03-12T15:49:16;34.53;;;7.40;;
51981;SDS011;37998;53.416;6.730;2023-03-12T15:54:30;38.08;;;7.90;;
51981;SDS011;37998;53.416;6.730;2023-03-12T16:02:37;43.83;;;9.65;;
51981;SDS011;37998;53.416;6.730;2023-03-12T16:05:08;39.67;;;7.68;;
51981;SDS011;37998;53.416;6.730;2023-03-12T16:07:34;43.60;;;7.57;;
51981;SDS011;37998;53.416;6.730;2023-03-12T16:10:00;48.50;;;8.07;;
51981;SDS011;37998;53.416;6.730;2023-03-12T16:12:25;49.30;;;8.45;;
51981;SDS011;37998;53.416;6.730;2023-03-12T16:14:51;32.05;;;7.78;;
51981;SDS011;37998;53.416;6.730;2023-03-12T16:17:17;40.92;;;8.38;;
51981;SDS011;37998;53.416;6.730;2023-03-12T16:19:47;37.15;;;7.82;;
51981;SDS011;37998;53.416;6.730;2023-03-12T16:22:12;31.30;;;7.47;;
51981;SDS011;37998;53.416;6.730;2023-03-12T16:24:38;44.67;;;7.95;;
51981;SDS011;37998;53.416;6.730;2023-03-12T16:27:04;41.60;;;8.40;;
51981;SDS011;37998;53.416;6.730;2023-03-12T16:29:35;34.22;;;7.70;;
51981;SDS011;37998;53.416;6.730;2023-03-12T16:32:01;30.35;;;8.43;;
51981;SDS011;37998;53.416;6.730;2023-03-12T16:34:33;41.63;;;7.63;;
51981;SDS011;37998;53.416;6.730;2023-03-12T16:36:58;34.90;;;8.52;;
51981;SDS011;37998;53.416;6.730;2023-03-12T16:39:24;42.45;;;8.00;;
51981;SDS011;37998;53.416;6.730;2023-03-12T16:41:54;35.42;;;8.05;;
51981;SDS011;37998;53.416;6.730;2023-03-12T16:44:20;35.92;;;8.40;;
51981;SDS011;37998;53.416;6.730;2023-03-12T16:46:46;37.40;;;7.75;;
51981;SDS011;37998;53.416;6.730;2023-03-12T16:49:15;40.83;;;9.05;;
51981;SDS011;37998;53.416;6.730;2023-03-12T16:51:42;36.03;;;7.82;;
51981;SDS011;37998;53.416;6.730;2023-03-12T16:54:07;37.20;;;7.65;;
51981;SDS011;37998;53.416;6.730;2023-03-12T16:56:33;34.30;;;7.55;;
51981;SDS011;37998;53.416;6.730;2023-03-12T16:59:04;42.22;;;7.53;;
51981;SDS011;37998;53.416;6.730;2023-03-12T17:01:32;40.53;;;9.13;;
51981;SDS011;37998;53.416;6.730;2023-03-12T17:03:59;39.88;;;9.25;;
51981;SDS011;37998;53.416;6.730;2023-03-12T17:06:25;38.38;;;8.30;;
51981;SDS011;37998;53.416;6.730;2023-03-12T17:08:51;42.58;;;9.02;;